sensor_id;sensor_type;location;lat;lon;timestamp;pressure;altitude;pressure_sealevel;temperature;humidity
57000;BME280;42891;50.006;21.964;2023-11-18T00:01:33;51181.03;;;-146.02;78.08
57000;BME280;42891;50.006;21.964;2023-11-18T00:05:33;51161.00;;;-146.02;78.21
57000;BME280;42891;50.006;21.964;2023-11-18T00:09:34;51189.03;;;-146.02;78.55
57000;BME280;42891;50.006;21.964;2023-11-18T00:13:35;51219.09;;;-146.02;77.99
57000;BME280;42891;50.006;21.964;2023-11-18T00:17:35;51221.09;;;-146.02;78.30
57000;BME280;42891;50.006;21.964;2023-11-18T00:21:35;51213.09;;;-146.02;78.11
57000;BME280;42891;50.006;21.964;2023-11-18T00:25:36;51181.03;;;-146.02;77.75
57000;BME280;42891;50.006;21.964;2023-11-18T00:29:39;51199.06;;;-146.02;77.46
57000;BME280;42891;50.006;21.964;2023-11-18T00:33:40;51191.03;;;-146.02;77.67
57000;BME280;42891;50.006;21.964;2023-11-18T00:37:40;51179.03;;;-146.02;78.30
57000;BME280;42891;50.006;21.964;2023-11-18T00:41:40;51191.03;;;-146.02;78.44
57000;BME280;42891;50.006;21.964;2023-11-18T00:45:41;51165.00;;;-146.02;78.17
57000;BME280;42891;50.006;21.964;2023-11-18T00:49:43;51179.03;;;-146.02;77.83
57000;BME280;42891;50.006;21.964;2023-11-18T00:53:43;51189.03;;;-146.02;77.67
57000;BME280;42891;50.006;21.964;2023-11-18T00:57:45;51175.00;;;-146.02;77.89
57000;BME280;42891;50.006;21.964;2023-11-18T01:01:45;51187.03;;;-146.02;78.04
57000;BME280;42891;50.006;21.964;2023-11-18T01:05:45;51181.03;;;-146.02;78.10
57000;BME280;42891;50.006;21.964;2023-11-18T01:09:46;51189.03;;;-146.02;78.45
57000;BME280;42891;50.006;21.964;2023-11-18T01:13:46;51185.03;;;-146.02;78.00
57000;BME280;42891;50.006;21.964;2023-11-18T01:17:47;51189.03;;;-146.02;78.08
57000;BME280;42891;50.006;21.964;2023-11-18T01:21:49;51189.03;;;-146.02;78.24
57000;BME280;42891;50.006;21.964;2023-11-18T01:25:49;51211.09;;;-146.02;77.72
57000;BME280;42891;50.006;21.964;2023-11-18T01:29:51;51173.00;;;-146.02;77.72
57000;BME280;42891;50.006;21.964;2023-11-18T01:33:51;51163.00;;;-146.02;77.68
57000;BME280;42891;50.006;21.964;2023-11-18T01:37:51;51213.09;;;-146.02;77.36
57000;BME280;42891;50.006;21.964;2023-11-18T01:41:51;51215.09;;;-146.02;77.59
57000;BME280;42891;50.006;21.964;2023-11-18T01:45:52;51183.03;;;-146.02;76.95
57000;BME280;42891;50.006;21.964;2023-11-18T01:49:53;51197.06;;;-146.02;77.05
57000;BME280;42891;50.006;21.964;2023-11-18T01:53:54;51189.03;;;-146.02;76.94
57000;BME280;42891;50.006;21.964;2023-11-18T01:57:55;51193.06;;;-146.02;77.28
57000;BME280;42891;50.006;21.964;2023-11-18T02:01:58;51146.97;;;-146.02;77.05
57000;BME280;42891;50.006;21.964;2023-11-18T02:06:00;51201.06;;;-146.02;76.94
57000;BME280;42891;50.006;21.964;2023-11-18T02:10:02;51169.00;;;-146.02;76.69
57000;BME280;42891;50.006;21.964;2023-11-18T02:14:04;51219.09;;;-146.02;77.29
57000;BME280;42891;50.006;21.964;2023-11-18T02:18:06;51193.06;;;-146.02;77.02
57000;BME280;42891;50.006;21.964;2023-11-18T02:22:09;51211.09;;;-146.02;77.18
57000;BME280;42891;50.006;21.964;2023-11-18T02:26:11;51191.03;;;-146.02;77.23
57000;BME280;42891;50.006;21.964;2023-11-18T02:30:12;51199.06;;;-146.02;77.29
57000;BME280;42891;50.006;21.964;2023-11-18T02:34:21;51215.09;;;-146.02;77.38
57000;BME280;42891;50.006;21.964;2023-11-18T02:38:30;51221.09;;;-146.02;77.16
57000;BME280;42891;50.006;21.964;2023-11-18T02:42:37;51148.97;;;-146.02;77.19
57000;BME280;42891;50.006;21.964;2023-11-18T02:46:38;51213.09;;;-146.02;77.30
57000;BME280;42891;50.006;21.964;2023-11-18T02:50:39;51189.03;;;-146.02;77.23
57000;BME280;42891;50.006;21.964;2023-11-18T02:54:41;51181.03;;;-146.02;77.31
57000;BME280;42891;50.006;21.964;2023-11-18T02:58:41;51171.00;;;-146.02;77.27
57000;BME280;42891;50.006;21.964;2023-11-18T03:02:42;51183.03;;;-146.02;77.07
57000;BME280;42891;50.006;21.964;2023-11-18T03:06:42;51201.06;;;-146.02;77.32
57000;BME280;42891;50.006;21.964;2023-11-18T03:10:43;51249.16;;;-146.02;77.19
57000;BME280;42891;50.006;21.964;2023-11-18T03:14:44;51183.03;;;-146.02;77.10
57000;BME280;42891;50.006;21.964;2023-11-18T03:18:44;51187.03;;;-146.02;76.70
57000;BME280;42891;50.006;21.964;2023-11-18T03:22:46;51207.06;;;-146.02;76.79
57000;BME280;42891;50.006;21.964;2023-11-18T03:26:46;51203.06;;;-146.02;76.95
57000;BME280;42891;50.006;21.964;2023-11-18T03:30:47;51187.03;;;-146.02;76.92
57000;BME280;42891;50.006;21.964;2023-11-18T03:34:48;51187.03;;;-146.02;76.99
57000;BME280;42891;50.006;21.964;2023-11-18T03:38:48;51203.06;;;-146.02;77.29
57000;BME280;42891;50.006;21.964;2023-11-18T03:42:49;51193.06;;;-146.02;77.36
57000;BME280;42891;50.006;21.964;2023-11-18T03:46:49;51203.06;;;-146.02;77.00
57000;BME280;42891;50.006;21.964;2023-11-18T03:50:50;51211.09;;;-146.02;76.99
57000;BME280;42891;50.006;21.964;2023-11-18T03:54:51;51171.00;;;-146.02;77.38
57000;BME280;42891;50.006;21.964;2023-11-18T03:58:51;51193.06;;;-146.02;77.58
57000;BME280;42891;50.006;21.964;2023-11-18T04:02:51;51193.06;;;-146.02;77.70
57000;BME280;42891;50.006;21.964;2023-11-18T04:06:51;51167.00;;;-146.02;77.72
57000;BME280;42891;50.006;21.964;2023-11-18T04:10:52;51171.00;;;-146.02;78.15
57000;BME280;42891;50.006;21.964;2023-11-18T04:14:52;51221.09;;;-146.02;78.17
57000;BME280;42891;50.006;21.964;2023-11-18T04:18:53;51165.00;;;-146.02;78.42
57000;BME280;42891;50.006;21.964;2023-11-18T04:22:53;51173.00;;;-146.02;78.22
57000;BME280;42891;50.006;21.964;2023-11-18T04:26:54;51185.03;;;-146.02;78.06
57000;BME280;42891;50.006;21.964;2023-11-18T04:30:55;51191.03;;;-146.02;78.09
57000;BME280;42891;50.006;21.964;2023-11-18T04:34:55;51171.00;;;-146.02;77.71
57000;BME280;42891;50.006;21.964;2023-11-18T04:38:55;51187.03;;;-146.02;78.05
57000;BME280;42891;50.006;21.964;2023-11-18T04:42:56;51165.00;;;-146.02;78.27
57000;BME280;42891;50.006;21.964;2023-11-18T04:46:56;51177.03;;;-146.02;78.38
57000;BME280;42891;50.006;21.964;2023-11-18T04:50:57;51187.03;;;-146.02;78.36
57000;BME280;42891;50.006;21.964;2023-11-18T04:54:57;51205.06;;;-146.02;78.30
57000;BME280;42891;50.006;21.964;2023-11-18T04:58:57;51177.03;;;-146.02;78.25
57000;BME280;42891;50.006;21.964;2023-11-18T05:02:58;51171.00;;;-146.02;77.89
57000;BME280;42891;50.006;21.964;2023-11-18T05:06:58;51197.06;;;-146.02;78.03
57000;BME280;42891;50.006;21.964;2023-11-18T05:10:58;51189.03;;;-146.02;78.11
57000;BME280;42891;50.006;21.964;2023-11-18T05:14:59;51171.00;;;-146.02;77.91
57000;BME280;42891;50.006;21.964;2023-11-18T05:18:59;51189.03;;;-146.02;78.06
57000;BME280;42891;50.006;21.964;2023-11-18T05:23:00;51158.97;;;-146.02;78.24
57000;BME280;42891;50.006;21.964;2023-11-18T05:27:01;51195.06;;;-146.02;78.11
57000;BME280;42891;50.006;21.964;2023-11-18T05:31:04;51142.97;;;-146.02;77.77
57000;BME280;42891;50.006;21.964;2023-11-18T05:35:05;51219.09;;;-146.02;78.02
57000;BME280;42891;50.006;21.964;2023-11-18T05:39:06;51215.09;;;-146.02;77.62
57000;BME280;42891;50.006;21.964;2023-11-18T05:43:07;51187.03;;;-146.02;77.70
57000;BME280;42891;50.006;21.964;2023-11-18T05:47:16;51211.09;;;-146.02;77.38
57000;BME280;42891;50.006;21.964;2023-11-18T05:51:26;51213.09;;;-146.02;77.79
57000;BME280;42891;50.006;21.964;2023-11-18T05:55:29;51217.09;;;-146.02;77.73
57000;BME280;42891;50.006;21.964;2023-11-18T05:59:29;51171.00;;;-146.02;77.85
57000;BME280;42891;50.006;21.964;2023-11-18T06:03:29;51219.09;;;-146.02;77.84
57000;BME280;42891;50.006;21.964;2023-11-18T06:07:30;51181.03;;;-146.02;77.73
57000;BME280;42891;50.006;21.964;2023-11-18T06:11:30;51179.03;;;-146.02;77.76
57000;BME280;42891;50.006;21.964;2023-11-18T06:15:36;51215.09;;;-146.02;77.42
57000;BME280;42891;50.006;21.964;2023-11-18T06:19:38;51173.00;;;-146.02;77.57
57000;BME280;42891;50.006;21.964;2023-11-18T06:23:40;51221.09;;;-146.02;77.80
57000;BME280;42891;50.006;21.964;2023-11-18T06:27:43;51173.00;;;-146.02;77.76
57000;BME280;42891;50.006;21.964;2023-11-18T06:31:45;51181.03;;;-146.02;77.48
57000;BME280;42891;50.006;21.964;2023-11-18T06:35:45;51165.00;;;-146.02;77.32
57000;BME280;42891;50.006;21.964;2023-11-18T06:39:45;51191.03;;;-146.02;77.46
57000;BME280;42891;50.006;21.964;2023-11-18T06:43:47;51191.03;;;-146.02;76.75
57000;BME280;42891;50.006;21.964;2023-11-18T06:47:53;51217.09;;;-146.02;76.87
57000;BME280;42891;50.006;21.964;2023-11-18T06:51:54;51181.03;;;-146.02;77.16
57000;BME280;42891;50.006;21.964;2023-11-18T06:55:54;51193.06;;;-146.02;77.05
57000;BME280;42891;50.006;21.964;2023-11-18T06:59:55;51175.00;;;-146.02;77.30
57000;BME280;42891;50.006;21.964;2023-11-18T07:03:55;51173.00;;;-146.02;77.11
57000;BME280;42891;50.006;21.964;2023-11-18T07:07:56;51185.03;;;-146.02;76.87
57000;BME280;42891;50.006;21.964;2023-11-18T07:11:56;51213.09;;;-146.02;76.50
57000;BME280;42891;50.006;21.964;2023-11-18T07:15:56;51183.03;;;-146.02;76.68
57000;BME280;42891;50.006;21.964;2023-11-18T07:19:57;51195.06;;;-146.02;76.54
57000;BME280;42891;50.006;21.964;2023-11-18T07:23:57;51201.06;;;-146.02;76.64
57000;BME280;42891;50.006;21.964;2023-11-18T07:27:58;51211.09;;;-146.02;76.76
57000;BME280;42891;50.006;21.964;2023-11-18T07:31:59;51177.03;;;-146.02;76.81
57000;BME280;42891;50.006;21.964;2023-11-18T07:36:05;51207.06;;;-146.02;77.00
57000;BME280;42891;50.006;21.964;2023-11-18T07:40:06;51235.13;;;-146.02;76.54
57000;BME280;42891;50.006;21.964;2023-11-18T07:44:08;51233.13;;;-146.02;77.21
57000;BME280;42891;50.006;21.964;2023-11-18T07:48:11;51221.09;;;-146.02;76.81
57000;BME280;42891;50.006;21.964;2023-11-18T07:52:17;51187.03;;;-146.02;77.07
57000;BME280;42891;50.006;21.964;2023-11-18T07:56:17;51215.09;;;-146.02;77.35
57000;BME280;42891;50.006;21.964;2023-11-18T08:00:17;51201.06;;;-146.02;77.55
57000;BME280;42891;50.006;21.964;2023-11-18T08:04:18;51211.09;;;-146.02;77.27
57000;BME280;42891;50.006;21.964;2023-11-18T08:08:20;51197.06;;;-146.02;77.73
57000;BME280;42891;50.006;21.964;2023-11-18T08:12:21;51163.00;;;-146.02;77.15
57000;BME280;42891;50.006;21.964;2023-11-18T08:16:21;51213.09;;;-146.02;77.44
57000;BME280;42891;50.006;21.964;2023-11-18T08:20:24;51209.09;;;-146.02;77.20
57000;BME280;42891;50.006;21.964;2023-11-18T08:24:25;51213.09;;;-146.02;77.31
57000;BME280;42891;50.006;21.964;2023-11-18T08:28:25;51185.03;;;-146.02;77.18
57000;BME280;42891;50.006;21.964;2023-11-18T08:32:26;51221.09;;;-146.02;76.77
57000;BME280;42891;50.006;21.964;2023-11-18T08:36:26;51197.06;;;-146.02;77.03
57000;BME280;42891;50.006;21.964;2023-11-18T08:40:27;51213.09;;;-146.02;77.27
57000;BME280;42891;50.006;21.964;2023-11-18T08:44:27;51199.06;;;-146.02;77.24
57000;BME280;42891;50.006;21.964;2023-11-18T08:48:28;51193.06;;;-146.02;76.93
57000;BME280;42891;50.006;21.964;2023-11-18T08:52:28;51211.09;;;-146.02;76.95
57000;BME280;42891;50.006;21.964;2023-11-18T08:56:29;51179.03;;;-146.02;76.87
57000;BME280;42891;50.006;21.964;2023-11-18T09:00:34;51205.06;;;-146.02;77.24
57000;BME280;42891;50.006;21.964;2023-11-18T09:04:46;51207.06;;;-146.02;77.18
57000;BME280;42891;50.006;21.964;2023-11-18T09:08:47;51183.03;;;-146.02;76.84
57000;BME280;42891;50.006;21.964;2023-11-18T09:12:52;51201.06;;;-146.02;77.71
57000;BME280;42891;50.006;21.964;2023-11-18T09:16:53;51207.06;;;-146.02;77.19
57000;BME280;42891;50.006;21.964;2023-11-18T09:20:59;51197.06;;;-146.02;77.15
57000;BME280;42891;50.006;21.964;2023-11-18T09:25:01;51235.13;;;-146.02;77.71
57000;BME280;42891;50.006;21.964;2023-11-18T09:29:01;51163.00;;;-146.02;78.19
57000;BME280;42891;50.006;21.964;2023-11-18T09:33:01;51205.06;;;-146.02;77.66
57000;BME280;42891;50.006;21.964;2023-11-18T09:37:02;51197.06;;;-146.02;77.40
57000;BME280;42891;50.006;21.964;2023-11-18T09:41:05;51203.06;;;-146.02;77.75
57000;BME280;42891;50.006;21.964;2023-11-18T09:45:11;51193.06;;;-146.02;77.97
57000;BME280;42891;50.006;21.964;2023-11-18T09:49:22;51205.06;;;-146.02;77.76
57000;BME280;42891;50.006;21.964;2023-11-18T09:53:26;51173.00;;;-146.02;77.73
57000;BME280;42891;50.006;21.964;2023-11-18T09:57:35;51213.09;;;-146.02;76.75
57000;BME280;42891;50.006;21.964;2023-11-18T10:01:41;51181.03;;;-146.02;77.77
57000;BME280;42891;50.006;21.964;2023-11-18T10:05:44;51207.06;;;-146.02;77.02
57000;BME280;42891;50.006;21.964;2023-11-18T10:09:45;51197.06;;;-146.02;78.80
57000;BME280;42891;50.006;21.964;2023-11-18T10:13:46;51207.06;;;-146.02;78.03
57000;BME280;42891;50.006;21.964;2023-11-18T10:17:49;51207.06;;;-146.02;78.49
57000;BME280;42891;50.006;21.964;2023-11-18T10:22:27;51171.00;;;-146.02;77.27
57000;BME280;42891;50.006;21.964;2023-11-18T10:26:27;51183.03;;;-146.02;79.35
57000;BME280;42891;50.006;21.964;2023-11-18T10:30:28;51203.06;;;-146.02;78.63
57000;BME280;42891;50.006;21.964;2023-11-18T10:34:32;51183.03;;;-146.02;77.84
57000;BME280;42891;50.006;21.964;2023-11-18T10:38:42;51205.06;;;-146.02;77.05
57000;BME280;42891;50.006;21.964;2023-11-18T10:42:49;51173.00;;;-146.02;77.50
57000;BME280;42891;50.006;21.964;2023-11-18T10:46:53;51189.03;;;-146.02;76.88
57000;BME280;42891;50.006;21.964;2023-11-18T10:50:54;51195.06;;;-146.02;77.53
57000;BME280;42891;50.006;21.964;2023-11-18T10:54:54;51199.06;;;-146.02;78.53
57000;BME280;42891;50.006;21.964;2023-11-18T10:58:59;51205.06;;;-146.02;78.93
57000;BME280;42891;50.006;21.964;2023-11-18T11:03:05;51207.06;;;-146.02;77.68
57000;BME280;42891;50.006;21.964;2023-11-18T11:07:06;51207.06;;;-146.02;77.71
57000;BME280;42891;50.006;21.964;2023-11-18T11:11:06;51169.00;;;-146.02;77.62
57000;BME280;42891;50.006;21.964;2023-11-18T11:15:13;51156.97;;;-146.02;76.95
57000;BME280;42891;50.006;21.964;2023-11-18T11:19:26;51207.06;;;-146.02;76.31
57000;BME280;42891;50.006;21.964;2023-11-18T11:28:11;51197.06;;;-146.02;76.29
57000;BME280;42891;50.006;21.964;2023-11-18T11:32:27;51213.09;;;-146.02;75.42
57000;BME280;42891;50.006;21.964;2023-11-18T11:36:37;51189.03;;;-146.02;75.77
57000;BME280;42891;50.006;21.964;2023-11-18T11:40:41;51219.09;;;-146.02;75.92
57000;BME280;42891;50.006;21.964;2023-11-18T11:44:42;51207.06;;;-146.02;76.59
57000;BME280;42891;50.006;21.964;2023-11-18T11:48:43;51221.09;;;-146.02;77.34
57000;BME280;42891;50.006;21.964;2023-11-18T11:52:53;51175.00;;;-146.02;76.67
57000;BME280;42891;50.006;21.964;2023-11-18T11:56:58;51185.03;;;-146.02;76.02
57000;BME280;42891;50.006;21.964;2023-11-18T12:01:15;51189.03;;;-146.02;75.88
57000;BME280;42891;50.006;21.964;2023-11-18T12:05:18;51199.06;;;-146.02;75.58
57000;BME280;42891;50.006;21.964;2023-11-18T12:09:29;51183.03;;;-146.02;76.42
57000;BME280;42891;50.006;21.964;2023-11-18T12:13:33;51185.03;;;-146.02;76.29
57000;BME280;42891;50.006;21.964;2023-11-18T12:21:54;51185.03;;;-146.02;76.14
57000;BME280;42891;50.006;21.964;2023-11-18T12:25:55;51183.03;;;-146.02;76.35
57000;BME280;42891;50.006;21.964;2023-11-18T12:29:56;51193.06;;;-146.02;75.99
57000;BME280;42891;50.006;21.964;2023-11-18T12:42:59;51197.06;;;-146.02;76.29
57000;BME280;42891;50.006;21.964;2023-11-18T12:47:03;51211.09;;;-146.02;76.13
57000;BME280;42891;50.006;21.964;2023-11-18T12:51:15;51203.06;;;-146.02;75.93
57000;BME280;42891;50.006;21.964;2023-11-18T12:55:20;51227.13;;;-146.02;76.03
57000;BME280;42891;50.006;21.964;2023-11-18T12:59:20;51193.06;;;-146.02;76.84
57000;BME280;42891;50.006;21.964;2023-11-18T13:03:21;51169.00;;;-146.02;75.63
57000;BME280;42891;50.006;21.964;2023-11-18T13:07:21;51207.06;;;-146.02;76.17
57000;BME280;42891;50.006;21.964;2023-11-18T13:11:22;51185.03;;;-146.02;75.84
57000;BME280;42891;50.006;21.964;2023-11-18T13:15:24;51175.00;;;-146.02;76.15
57000;BME280;42891;50.006;21.964;2023-11-18T13:19:26;51235.13;;;-146.02;75.89
57000;BME280;42891;50.006;21.964;2023-11-18T13:23:27;51183.03;;;-146.02;75.99
57000;BME280;42891;50.006;21.964;2023-11-18T13:27:30;51223.09;;;-146.02;75.08
57000;BME280;42891;50.006;21.964;2023-11-18T13:31:32;51215.09;;;-146.02;75.44
57000;BME280;42891;50.006;21.964;2023-11-18T13:35:33;51235.13;;;-146.02;75.52
57000;BME280;42891;50.006;21.964;2023-11-18T13:39:36;51201.06;;;-146.02;76.15
57000;BME280;42891;50.006;21.964;2023-11-18T13:43:43;51183.03;;;-146.02;75.69
57000;BME280;42891;50.006;21.964;2023-11-18T13:47:50;51187.03;;;-146.02;75.82
57000;BME280;42891;50.006;21.964;2023-11-18T13:51:52;51193.06;;;-146.02;76.08
57000;BME280;42891;50.006;21.964;2023-11-18T13:55:53;51177.03;;;-146.02;76.00
57000;BME280;42891;50.006;21.964;2023-11-18T13:59:54;51227.13;;;-146.02;75.93
57000;BME280;42891;50.006;21.964;2023-11-18T14:03:54;51215.09;;;-146.02;76.12
57000;BME280;42891;50.006;21.964;2023-11-18T14:07:55;51213.09;;;-146.02;76.02
57000;BME280;42891;50.006;21.964;2023-11-18T14:12:08;51181.03;;;-146.02;76.20
57000;BME280;42891;50.006;21.964;2023-11-18T14:16:09;51207.06;;;-146.02;76.21
57000;BME280;42891;50.006;21.964;2023-11-18T14:20:10;51167.00;;;-146.02;76.84
57000;BME280;42891;50.006;21.964;2023-11-18T14:24:12;51189.03;;;-146.02;76.41
57000;BME280;42891;50.006;21.964;2023-11-18T14:28:13;51225.13;;;-146.02;76.37
57000;BME280;42891;50.006;21.964;2023-11-18T14:32:13;51221.09;;;-146.02;76.58
57000;BME280;42891;50.006;21.964;2023-11-18T14:36:14;51193.06;;;-146.02;76.78
57000;BME280;42891;50.006;21.964;2023-11-18T14:40:15;51199.06;;;-146.02;77.21
57000;BME280;42891;50.006;21.964;2023-11-18T14:44:16;51173.00;;;-146.02;76.97
57000;BME280;42891;50.006;21.964;2023-11-18T14:48:17;51191.03;;;-146.02;77.12
57000;BME280;42891;50.006;21.964;2023-11-18T14:52:17;51193.06;;;-146.02;76.69
57000;BME280;42891;50.006;21.964;2023-11-18T14:56:18;51167.00;;;-146.02;76.83
57000;BME280;42891;50.006;21.964;2023-11-18T15:00:18;51217.09;;;-146.02;76.54
57000;BME280;42891;50.006;21.964;2023-11-18T15:04:19;51185.03;;;-146.02;77.17
57000;BME280;42891;50.006;21.964;2023-11-18T15:08:19;51217.09;;;-146.02;76.29
57000;BME280;42891;50.006;21.964;2023-11-18T15:12:19;51209.09;;;-146.02;76.39
57000;BME280;42891;50.006;21.964;2023-11-18T15:16:20;51215.09;;;-146.02;76.07
57000;BME280;42891;50.006;21.964;2023-11-18T15:20:20;51191.03;;;-146.02;75.80
57000;BME280;42891;50.006;21.964;2023-11-18T15:24:23;51209.09;;;-146.02;76.04
57000;BME280;42891;50.006;21.964;2023-11-18T15:28:24;51209.09;;;-146.02;76.19
57000;BME280;42891;50.006;21.964;2023-11-18T15:32:25;51233.13;;;-146.02;75.83
57000;BME280;42891;50.006;21.964;2023-11-18T15:36:27;51193.06;;;-146.02;76.53
57000;BME280;42891;50.006;21.964;2023-11-18T15:40:27;51175.00;;;-146.02;76.76
57000;BME280;42891;50.006;21.964;2023-11-18T15:44:28;51209.09;;;-146.02;76.47
57000;BME280;42891;50.006;21.964;2023-11-18T15:48:28;51185.03;;;-146.02;76.35
57000;BME280;42891;50.006;21.964;2023-11-18T15:52:29;51171.00;;;-146.02;76.17
57000;BME280;42891;50.006;21.964;2023-11-18T15:56:29;51207.06;;;-146.02;76.30
57000;BME280;42891;50.006;21.964;2023-11-18T16:00:30;51197.06;;;-146.02;76.16
57000;BME280;42891;50.006;21.964;2023-11-18T16:04:31;51195.06;;;-146.02;76.08
57000;BME280;42891;50.006;21.964;2023-11-18T16:08:32;51225.13;;;-146.02;75.95
57000;BME280;42891;50.006;21.964;2023-11-18T16:12:32;51181.03;;;-146.02;76.03
57000;BME280;42891;50.006;21.964;2023-11-18T16:16:33;51193.06;;;-146.02;76.10
57000;BME280;42891;50.006;21.964;2023-11-18T16:20:34;51211.09;;;-146.02;76.14
57000;BME280;42891;50.006;21.964;2023-11-18T16:24:34;51207.06;;;-146.02;76.06
57000;BME280;42891;50.006;21.964;2023-11-18T16:28:35;51193.06;;;-146.02;76.04
57000;BME280;42891;50.006;21.964;2023-11-18T16:32:35;51185.03;;;-146.02;76.29
57000;BME280;42891;50.006;21.964;2023-11-18T16:36:36;51211.09;;;-146.02;76.26
57000;BME280;42891;50.006;21.964;2023-11-18T16:40:39;51195.06;;;-146.02;76.12
57000;BME280;42891;50.006;21.964;2023-11-18T16:44:39;51169.00;;;-146.02;76.24
57000;BME280;42891;50.006;21.964;2023-11-18T16:48:40;51167.00;;;-146.02;76.34
57000;BME280;42891;50.006;21.964;2023-11-18T16:52:40;51177.03;;;-146.02;76.40
57000;BME280;42891;50.006;21.964;2023-11-18T16:56:41;51203.06;;;-146.02;76.48
57000;BME280;42891;50.006;21.964;2023-11-18T17:00:41;51154.97;;;-146.02;76.36
57000;BME280;42891;50.006;21.964;2023-11-18T17:04:43;51227.13;;;-146.02;76.10
57000;BME280;42891;50.006;21.964;2023-11-18T17:08:44;51223.09;;;-146.02;76.34
57000;BME280;42891;50.006;21.964;2023-11-18T17:12:45;51201.06;;;-146.02;76.22
57000;BME280;42891;50.006;21.964;2023-11-18T17:16:45;51223.09;;;-146.02;76.16
57000;BME280;42891;50.006;21.964;2023-11-18T17:20:48;51183.03;;;-146.02;76.01
57000;BME280;42891;50.006;21.964;2023-11-18T17:24:48;51189.03;;;-146.02;75.31
57000;BME280;42891;50.006;21.964;2023-11-18T17:28:48;51207.06;;;-146.02;75.64
57000;BME280;42891;50.006;21.964;2023-11-18T17:32:50;51219.09;;;-146.02;75.84
57000;BME280;42891;50.006;21.964;2023-11-18T17:36:53;51237.13;;;-146.02;76.15
57000;BME280;42891;50.006;21.964;2023-11-18T17:40:54;51199.06;;;-146.02;76.08
57000;BME280;42891;50.006;21.964;2023-11-18T17:44:54;51183.03;;;-146.02;75.72
57000;BME280;42891;50.006;21.964;2023-11-18T17:48:54;51187.03;;;-146.02;75.31
57000;BME280;42891;50.006;21.964;2023-11-18T17:52:54;51183.03;;;-146.02;74.89
57000;BME280;42891;50.006;21.964;2023-11-18T17:56:57;51177.03;;;-146.02;74.41
57000;BME280;42891;50.006;21.964;2023-11-18T18:01:00;51165.00;;;-146.02;75.34
57000;BME280;42891;50.006;21.964;2023-11-18T18:05:01;51197.06;;;-146.02;74.93
57000;BME280;42891;50.006;21.964;2023-11-18T18:09:01;51169.00;;;-146.02;75.10
57000;BME280;42891;50.006;21.964;2023-11-18T18:13:02;51197.06;;;-146.02;75.09
57000;BME280;42891;50.006;21.964;2023-11-18T18:17:02;51199.06;;;-146.02;75.60
57000;BME280;42891;50.006;21.964;2023-11-18T18:21:04;51241.16;;;-146.02;75.58
57000;BME280;42891;50.006;21.964;2023-11-18T18:25:05;51247.16;;;-146.02;76.15
57000;BME280;42891;50.006;21.964;2023-11-18T18:29:06;51237.13;;;-146.02;76.07
57000;BME280;42891;50.006;21.964;2023-11-18T18:33:06;51201.06;;;-146.02;76.10
57000;BME280;42891;50.006;21.964;2023-11-18T18:37:08;51193.06;;;-146.02;76.09
57000;BME280;42891;50.006;21.964;2023-11-18T18:41:09;51211.09;;;-146.02;75.71
57000;BME280;42891;50.006;21.964;2023-11-18T18:45:09;51231.13;;;-146.02;75.98
57000;BME280;42891;50.006;21.964;2023-11-18T18:49:11;51185.03;;;-146.02;76.25
57000;BME280;42891;50.006;21.964;2023-11-18T18:53:11;51205.06;;;-146.02;76.31
57000;BME280;42891;50.006;21.964;2023-11-18T18:57:12;51207.06;;;-146.02;76.24
57000;BME280;42891;50.006;21.964;2023-11-18T19:01:12;51209.09;;;-146.02;76.42
57000;BME280;42891;50.006;21.964;2023-11-18T19:05:12;51191.03;;;-146.02;76.02
57000;BME280;42891;50.006;21.964;2023-11-18T19:09:14;51175.00;;;-146.02;75.71
57000;BME280;42891;50.006;21.964;2023-11-18T19:13:17;51173.00;;;-146.02;75.66
57000;BME280;42891;50.006;21.964;2023-11-18T19:17:17;51189.03;;;-146.02;75.45
57000;BME280;42891;50.006;21.964;2023-11-18T19:21:17;51207.06;;;-146.02;75.58
57000;BME280;42891;50.006;21.964;2023-11-18T19:25:18;51173.00;;;-146.02;75.39
57000;BME280;42891;50.006;21.964;2023-11-18T19:29:18;51217.09;;;-146.02;75.42
57000;BME280;42891;50.006;21.964;2023-11-18T19:33:19;51177.03;;;-146.02;75.57
57000;BME280;42891;50.006;21.964;2023-11-18T19:37:20;51203.06;;;-146.02;75.63
57000;BME280;42891;50.006;21.964;2023-11-18T19:41:20;51203.06;;;-146.02;74.82
57000;BME280;42891;50.006;21.964;2023-11-18T19:45:21;51201.06;;;-146.02;75.04
57000;BME280;42891;50.006;21.964;2023-11-18T19:49:21;51195.06;;;-146.02;75.68
57000;BME280;42891;50.006;21.964;2023-11-18T19:53:22;51185.03;;;-146.02;75.71
57000;BME280;42891;50.006;21.964;2023-11-18T19:57:22;51189.03;;;-146.02;75.23
57000;BME280;42891;50.006;21.964;2023-11-18T20:01:23;51233.13;;;-146.02;74.92
57000;BME280;42891;50.006;21.964;2023-11-18T20:05:23;51197.06;;;-146.02;75.37
57000;BME280;42891;50.006;21.964;2023-11-18T20:09:23;51169.00;;;-146.02;75.45
57000;BME280;42891;50.006;21.964;2023-11-18T20:13:23;51185.03;;;-146.02;76.08
57000;BME280;42891;50.006;21.964;2023-11-18T20:17:24;51195.06;;;-146.02;76.21
57000;BME280;42891;50.006;21.964;2023-11-18T20:21:25;51185.03;;;-146.02;76.41
57000;BME280;42891;50.006;21.964;2023-11-18T20:25:25;51193.06;;;-146.02;77.23
57000;BME280;42891;50.006;21.964;2023-11-18T20:29:27;51235.13;;;-146.02;76.43
57000;BME280;42891;50.006;21.964;2023-11-18T20:33:29;51233.13;;;-146.02;76.78
57000;BME280;42891;50.006;21.964;2023-11-18T20:37:29;51215.09;;;-146.02;76.79
57000;BME280;42891;50.006;21.964;2023-11-18T20:41:30;51185.03;;;-146.02;77.00
57000;BME280;42891;50.006;21.964;2023-11-18T20:45:30;51165.00;;;-146.02;76.46
57000;BME280;42891;50.006;21.964;2023-11-18T20:49:31;51223.09;;;-146.02;76.21